createdAt,value
2023-09-17T00:00:43.340Z,67.75
2023-09-17T00:03:09.557Z,67.83
2023-09-17T00:05:35.754Z,68.48
2023-09-17T00:08:01.918Z,68.13
2023-09-17T00:10:28.612Z,67.57
2023-09-17T00:12:54.801Z,68.03
2023-09-17T00:15:20.955Z,66.98
2023-09-17T00:17:47.139Z,66.52
2023-09-17T00:20:13.353Z,66.18
2023-09-17T00:22:39.563Z,66.74
2023-09-17T00:25:05.795Z,66.85
2023-09-17T00:27:31.963Z,66.34
2023-09-17T00:29:58.129Z,67.28
2023-09-17T00:32:24.313Z,67.52
2023-09-17T00:34:50.454Z,67.50
2023-09-17T00:37:17.050Z,67.43
2023-09-17T00:39:43.319Z,67.03
2023-09-17T00:42:09.473Z,66.61
2023-09-17T00:44:35.734Z,67.07
2023-09-17T00:47:02.028Z,67.75
2023-09-17T00:49:28.313Z,67.49
2023-09-17T00:51:54.495Z,67.99
2023-09-17T00:54:20.701Z,67.63
2023-09-17T00:56:46.866Z,68.25
2023-09-17T00:59:13.017Z,67.84
2023-09-17T01:01:39.258Z,67.82
2023-09-17T01:04:05.609Z,67.12
2023-09-17T01:06:31.801Z,66.78
2023-09-17T01:08:57.976Z,67.20
2023-09-17T01:11:24.165Z,67.03
2023-09-17T01:13:50.862Z,67.73
2023-09-17T01:16:17.340Z,67.01
2023-09-17T01:18:43.568Z,67.57
2023-09-17T01:21:09.737Z,68.15
2023-09-17T01:23:35.923Z,67.69
2023-09-17T01:26:02.101Z,68.46
2023-09-17T01:28:28.289Z,68.43
2023-09-17T01:30:54.501Z,68.50
2023-09-17T01:33:20.675Z,68.13
2023-09-17T01:35:46.844Z,67.55
2023-09-17T01:38:13.034Z,67.55
2023-09-17T01:40:39.246Z,66.39
2023-09-17T01:43:05.454Z,66.76
2023-09-17T01:45:31.653Z,67.02
2023-09-17T01:47:57.848Z,66.75
2023-09-17T01:50:24.045Z,66.57
2023-09-17T01:52:50.241Z,66.21
2023-09-17T01:55:16.460Z,66.80
2023-09-17T01:57:42.638Z,67.15
2023-09-17T02:00:08.801Z,67.23
2023-09-17T02:02:35.029Z,66.96
2023-09-17T02:05:01.305Z,65.78
2023-09-17T02:07:27.515Z,65.53
2023-09-17T02:09:53.730Z,66.17
2023-09-17T02:12:19.899Z,66.69
2023-09-17T02:14:46.117Z,67.74
2023-09-17T02:17:13.879Z,68.18
2023-09-17T02:19:40.233Z,67.48
2023-09-17T02:22:06.479Z,67.30
2023-09-17T02:24:32.622Z,66.83
2023-09-17T02:26:58.815Z,68.16
2023-09-17T02:29:24.972Z,68.44
2023-09-17T02:31:51.204Z,67.84
2023-09-17T02:34:17.470Z,67.57
2023-09-17T02:36:43.689Z,66.91
2023-09-17T02:39:09.845Z,66.80
2023-09-17T02:41:36.000Z,67.81
2023-09-17T02:44:02.171Z,68.28
2023-09-17T02:46:28.397Z,67.84
2023-09-17T02:48:54.591Z,67.32
2023-09-17T02:51:20.755Z,67.41
2023-09-17T02:53:46.934Z,68.59
2023-09-17T02:56:13.202Z,69.10
2023-09-17T02:58:39.427Z,69.19
2023-09-17T03:01:05.716Z,68.95
2023-09-17T03:03:31.998Z,69.38
2023-09-17T03:05:58.186Z,69.45
2023-09-17T03:08:24.430Z,68.68
2023-09-17T03:10:50.619Z,69.54
2023-09-17T03:13:16.827Z,68.65
2023-09-17T03:15:43.191Z,68.43
2023-09-17T03:18:09.377Z,68.53
2023-09-17T03:20:35.596Z,69.14
2023-09-17T03:23:01.749Z,69.60
2023-09-17T03:25:27.908Z,69.31
2023-09-17T03:27:54.094Z,69.35
2023-09-17T03:30:20.239Z,68.87
2023-09-17T03:33:01.929Z,68.70
2023-09-17T03:35:30.237Z,68.15
2023-09-17T03:37:56.441Z,68.50
2023-09-17T03:40:22.753Z,67.81
2023-09-17T03:42:48.997Z,68.35
2023-09-17T03:45:15.141Z,68.82
2023-09-17T03:47:41.388Z,68.62
2023-09-17T03:50:07.633Z,69.38
2023-09-17T03:52:33.836Z,68.65
2023-09-17T03:54:59.996Z,67.72
2023-09-17T03:57:26.157Z,65.94
2023-09-17T03:59:52.332Z,66.73
2023-09-17T04:02:18.606Z,65.90
2023-09-17T04:04:44.882Z,66.61
2023-09-17T04:07:11.053Z,65.87
2023-09-17T04:09:37.211Z,65.98
2023-09-17T04:12:03.355Z,66.02
2023-09-17T04:14:29.505Z,65.85
2023-09-17T04:16:55.815Z,66.78
2023-09-17T04:19:22.266Z,66.30
2023-09-17T04:21:48.443Z,65.87
2023-09-17T04:24:14.708Z,66.00
2023-09-17T04:26:40.876Z,66.30
2023-09-17T04:29:07.030Z,66.29
2023-09-17T04:31:33.251Z,66.67
2023-09-17T04:33:59.424Z,66.64
2023-09-17T04:36:25.594Z,66.00
2023-09-17T04:38:51.763Z,67.43
2023-09-17T04:41:17.920Z,67.48
2023-09-17T04:43:44.138Z,68.21
2023-09-17T04:46:10.339Z,67.77
2023-09-17T04:48:36.533Z,67.68
2023-09-17T04:51:02.708Z,67.24
2023-09-17T04:53:28.857Z,66.64
2023-09-17T04:55:55.056Z,67.33
2023-09-17T04:58:21.252Z,67.31
2023-09-17T05:00:47.423Z,67.15
2023-09-17T05:03:13.716Z,67.35
2023-09-17T05:05:39.938Z,68.23
2023-09-17T05:08:06.089Z,68.14
2023-09-17T05:10:32.275Z,68.90
2023-09-17T05:12:58.506Z,69.39
2023-09-17T05:15:24.709Z,69.47
2023-09-17T05:17:50.873Z,69.15
2023-09-17T05:20:17.072Z,69.19
2023-09-17T05:22:43.294Z,68.79
2023-09-17T05:25:09.635Z,67.92
2023-09-17T05:27:35.913Z,68.59
2023-09-17T05:30:02.058Z,69.08
2023-09-17T05:32:28.310Z,67.54
2023-09-17T05:34:54.521Z,67.15
2023-09-17T05:37:20.764Z,67.30
2023-09-17T05:39:46.983Z,68.01
2023-09-17T05:42:13.165Z,68.06
2023-09-17T05:44:39.325Z,67.76
2023-09-17T05:47:05.477Z,68.27
2023-09-17T05:49:31.660Z,68.51
2023-09-17T05:51:57.879Z,68.48
2023-09-17T05:54:24.078Z,68.15
2023-09-17T05:56:50.237Z,66.40
2023-09-17T05:59:16.502Z,66.20
2023-09-17T06:01:42.728Z,65.71
2023-09-17T06:04:08.914Z,65.70
2023-09-17T06:06:35.074Z,64.83
2023-09-17T06:09:01.238Z,65.40
2023-09-17T06:11:27.407Z,65.70
2023-09-17T06:13:53.813Z,65.33
2023-09-17T06:16:20.382Z,65.24
2023-09-17T06:18:46.630Z,65.36
2023-09-17T06:21:12.792Z,64.33
2023-09-17T06:23:39.014Z,63.82
2023-09-17T06:26:06.743Z,63.78
2023-09-17T06:28:34.933Z,64.74
2023-09-17T06:31:01.115Z,65.65
2023-09-17T06:33:27.318Z,64.75
2023-09-17T06:35:53.783Z,64.38
2023-09-17T06:38:19.964Z,65.72
2023-09-17T06:40:46.184Z,65.85
2023-09-17T06:43:12.370Z,65.83
2023-09-17T06:45:38.526Z,64.82
2023-09-17T06:48:04.729Z,64.84
2023-09-17T06:50:30.882Z,65.77
2023-09-17T06:52:57.087Z,64.65
2023-09-17T06:55:23.313Z,63.41
2023-09-17T06:57:49.548Z,62.98
2023-09-17T07:00:15.707Z,61.84
2023-09-17T07:02:41.890Z,62.00
2023-09-17T07:05:08.138Z,61.10
2023-09-17T07:07:34.413Z,60.48
2023-09-17T07:10:00.593Z,60.36
2023-09-17T07:12:26.771Z,59.88
2023-09-17T07:14:52.924Z,61.82
2023-09-17T07:17:19.242Z,62.16
2023-09-17T07:19:45.515Z,61.47
2023-09-17T07:22:13.156Z,61.40
2023-09-17T07:24:39.732Z,61.49
2023-09-17T07:27:05.904Z,60.48
2023-09-17T07:29:32.070Z,59.89
2023-09-17T07:31:58.347Z,58.38
2023-09-17T07:34:24.606Z,58.80
2023-09-17T07:36:50.762Z,59.01
2023-09-17T07:39:16.918Z,59.29
2023-09-17T07:41:43.074Z,58.74
2023-09-17T07:44:09.278Z,59.55
2023-09-17T07:46:35.559Z,60.75
2023-09-17T07:49:01.845Z,60.68
2023-09-17T07:51:28.008Z,59.34
2023-09-17T07:53:54.159Z,59.25
2023-09-17T07:56:21.599Z,60.53
2023-09-17T07:58:50.016Z,60.37
2023-09-17T08:01:16.205Z,60.48
2023-09-17T08:03:42.498Z,60.57
2023-09-17T08:06:08.773Z,60.30
2023-09-17T08:08:34.933Z,60.38
2023-09-17T08:11:01.156Z,59.58
2023-09-17T08:13:27.547Z,59.71
2023-09-17T08:15:53.799Z,60.63
2023-09-17T08:18:20.070Z,59.42
2023-09-17T08:20:46.224Z,58.93
2023-09-17T08:23:12.388Z,57.38
2023-09-17T08:25:38.595Z,57.09
2023-09-17T08:28:08.746Z,59.00
2023-09-17T08:30:36.307Z,58.60
2023-09-17T08:33:02.624Z,57.77
2023-09-17T08:35:28.835Z,57.20
2023-09-17T08:37:55.050Z,57.21
2023-09-17T08:40:21.235Z,57.39
2023-09-17T08:42:47.415Z,55.76
2023-09-17T08:45:13.579Z,52.83
2023-09-17T08:47:39.759Z,55.02
2023-09-17T08:50:06.046Z,54.80
2023-09-17T08:52:32.264Z,54.07
2023-09-17T08:54:58.471Z,53.24
2023-09-17T08:57:24.649Z,53.09
2023-09-17T08:59:50.846Z,53.91
2023-09-17T09:02:17.075Z,53.87
2023-09-17T09:04:43.328Z,53.96
2023-09-17T09:07:09.595Z,53.21
2023-09-17T09:09:35.757Z,52.20
2023-09-17T09:12:01.913Z,52.42
2023-09-17T09:14:28.068Z,52.96
2023-09-17T09:16:54.279Z,52.54
2023-09-17T09:19:20.476Z,51.88
2023-09-17T09:21:46.638Z,51.93
2023-09-17T09:24:12.912Z,51.87
2023-09-17T09:26:39.109Z,50.69
2023-09-17T09:29:05.373Z,50.88
2023-09-17T09:31:31.612Z,49.87
2023-09-17T09:33:57.781Z,48.24
2023-09-17T09:36:23.932Z,53.16
2023-09-17T09:38:50.109Z,54.71
2023-09-17T09:41:16.333Z,55.06
2023-09-17T09:43:42.496Z,54.31
2023-09-17T09:46:08.724Z,48.66
2023-09-17T09:48:34.903Z,48.81
2023-09-17T09:51:01.046Z,51.43
2023-09-17T09:53:27.196Z,50.07
2023-09-17T09:55:53.411Z,49.30
2023-09-17T09:58:19.643Z,49.17
2023-09-17T10:00:45.823Z,49.31
2023-09-17T10:03:12.059Z,49.45
2023-09-17T10:05:38.344Z,50.12
2023-09-17T10:08:04.607Z,50.29
2023-09-17T10:10:30.851Z,48.93
2023-09-17T10:12:57.094Z,49.85
2023-09-17T10:15:23.288Z,50.07
2023-09-17T10:17:49.514Z,49.77
2023-09-17T10:20:15.756Z,51.28
2023-09-17T10:22:41.937Z,49.90
2023-09-17T10:25:08.213Z,49.22
2023-09-17T10:27:34.376Z,49.29
2023-09-17T10:30:00.678Z,48.40
2023-09-17T10:32:26.854Z,48.63
2023-09-17T10:34:53.059Z,48.93
2023-09-17T10:37:19.237Z,48.76
2023-09-17T10:39:45.397Z,46.88
2023-09-17T10:42:11.572Z,45.98
2023-09-17T10:44:38.295Z,44.97
2023-09-17T10:47:04.775Z,44.76
2023-09-17T10:49:31.063Z,44.33
2023-09-17T10:51:57.288Z,45.34
2023-09-17T10:54:23.465Z,42.55
2023-09-17T10:56:49.622Z,41.43
2023-09-17T10:59:15.780Z,41.50
2023-09-17T11:01:42.027Z,41.83
2023-09-17T11:04:08.266Z,40.36
2023-09-17T11:06:34.431Z,40.09
2023-09-17T11:09:00.586Z,40.52
2023-09-17T11:11:26.737Z,40.52
2023-09-17T11:13:53.141Z,41.89
2023-09-17T11:16:19.571Z,44.28
2023-09-17T11:18:45.786Z,45.83
2023-09-17T11:21:11.947Z,45.06
2023-09-17T11:23:38.128Z,44.73
2023-09-17T11:26:04.345Z,46.45
2023-09-17T11:28:30.529Z,46.95
2023-09-17T11:30:56.731Z,46.58
2023-09-17T11:33:22.896Z,45.91
2023-09-17T11:35:49.190Z,44.49
2023-09-17T11:38:15.436Z,44.49
2023-09-17T11:40:41.627Z,44.13
2023-09-17T11:43:07.980Z,42.69
2023-09-17T11:45:34.135Z,42.86
2023-09-17T11:48:00.325Z,40.69
2023-09-17T11:50:26.511Z,40.42
2023-09-17T11:52:52.702Z,40.33
2023-09-17T11:55:18.865Z,41.83
2023-09-17T11:57:45.029Z,42.14
2023-09-17T12:00:11.238Z,41.60
2023-09-17T12:02:37.448Z,41.73
2023-09-17T12:05:03.718Z,42.30
2023-09-17T12:07:36.092Z,41.67
2023-09-17T12:10:08.472Z,40.69
2023-09-17T12:12:34.651Z,40.95
2023-09-17T12:15:00.818Z,40.85
2023-09-17T12:17:27.044Z,40.91
2023-09-17T12:19:53.303Z,40.11
2023-09-17T12:22:19.536Z,39.80
2023-09-17T12:24:46.841Z,40.53
2023-09-17T12:27:14.420Z,39.47
2023-09-17T12:29:40.680Z,38.99
2023-09-17T12:32:06.931Z,38.89
2023-09-17T12:34:33.145Z,40.37
2023-09-17T12:36:59.314Z,41.97
2023-09-17T12:39:25.470Z,42.28
2023-09-17T12:41:53.638Z,41.50
2023-09-17T12:44:19.903Z,41.19
2023-09-17T12:46:46.059Z,39.65
2023-09-17T12:49:12.257Z,39.87
2023-09-17T12:51:38.555Z,39.19
2023-09-17T12:54:04.783Z,37.51
2023-09-17T12:56:30.947Z,36.64
2023-09-17T12:58:57.167Z,37.08
2023-09-17T13:01:23.425Z,42.00
2023-09-17T13:03:49.903Z,41.82
2023-09-17T13:06:16.244Z,41.43
2023-09-17T13:08:42.459Z,39.02
2023-09-17T13:11:08.698Z,38.83
2023-09-17T13:13:34.935Z,36.71
2023-09-17T13:16:01.166Z,36.98
2023-09-17T13:18:27.346Z,36.51
2023-09-17T13:20:53.520Z,36.21
2023-09-17T13:23:20.270Z,38.19
2023-09-17T13:25:46.446Z,38.21
2023-09-17T13:28:12.625Z,38.76
2023-09-17T13:30:39.439Z,40.30
2023-09-17T13:33:05.672Z,41.05
2023-09-17T13:35:31.871Z,40.38
2023-09-17T13:37:58.108Z,40.23
2023-09-17T13:40:24.350Z,39.51
2023-09-17T13:42:50.531Z,42.51
2023-09-17T13:45:16.707Z,42.91
2023-09-17T13:47:42.948Z,43.33
2023-09-17T13:50:09.234Z,42.64
2023-09-17T13:52:35.476Z,43.58
2023-09-17T13:55:01.665Z,44.19
2023-09-17T13:57:27.929Z,42.68
2023-09-17T13:59:54.122Z,42.54
2023-09-17T14:02:20.373Z,42.05
2023-09-17T14:04:46.654Z,41.50
2023-09-17T14:07:12.920Z,41.26
2023-09-17T14:09:39.080Z,41.38
2023-09-17T14:12:05.258Z,39.93
2023-09-17T14:14:31.433Z,39.35
2023-09-17T14:16:57.664Z,36.29
2023-09-17T14:19:23.853Z,36.25
2023-09-17T14:21:50.012Z,35.62
2023-09-17T14:24:16.208Z,35.84
2023-09-17T14:26:42.406Z,35.74
2023-09-17T14:29:08.673Z,35.67
2023-09-17T14:31:34.886Z,36.67
2023-09-17T14:34:01.064Z,38.14
2023-09-17T14:36:27.266Z,37.54
2023-09-17T14:38:53.736Z,38.36
2023-09-17T14:41:20.017Z,38.34
2023-09-17T14:43:46.190Z,39.87
2023-09-17T14:46:13.549Z,39.47
2023-09-17T14:48:39.951Z,38.18
2023-09-17T14:51:06.129Z,38.74
2023-09-17T14:53:32.319Z,40.54
2023-09-17T14:55:58.652Z,40.14
2023-09-17T14:58:24.933Z,39.11
2023-09-17T15:00:51.261Z,37.62
2023-09-17T15:03:17.641Z,37.66
2023-09-17T15:05:43.898Z,36.46
2023-09-17T15:08:10.152Z,37.47
2023-09-17T15:10:36.345Z,38.19
2023-09-17T15:13:02.517Z,38.64
2023-09-17T15:15:28.797Z,40.15
2023-09-17T15:17:54.973Z,39.04
2023-09-17T15:20:21.759Z,41.61
2023-09-17T15:22:48.120Z,41.19
2023-09-17T15:25:14.301Z,40.40
2023-09-17T15:27:40.520Z,42.51
2023-09-17T15:30:06.703Z,43.36
2023-09-17T15:32:33.059Z,41.26
2023-09-17T15:34:59.403Z,40.32
2023-09-17T15:37:25.639Z,42.21
2023-09-17T15:39:51.813Z,44.22
2023-09-17T15:42:17.981Z,45.13
2023-09-17T15:44:44.138Z,45.46
2023-09-17T15:47:10.325Z,45.52
2023-09-17T15:49:36.493Z,45.94
2023-09-17T15:52:05.400Z,46.22
2023-09-17T15:54:32.119Z,45.46
2023-09-17T15:56:58.263Z,46.70
2023-09-17T15:59:24.433Z,49.23
2023-09-17T16:01:50.764Z,46.38
2023-09-17T16:04:17.080Z,46.89
2023-09-17T16:06:43.325Z,44.92
2023-09-17T16:09:09.543Z,47.17
2023-09-17T16:11:35.741Z,49.88
2023-09-17T16:14:01.939Z,49.17
2023-09-17T16:16:28.146Z,50.62
2023-09-17T16:18:54.375Z,50.85
2023-09-17T16:21:20.559Z,51.07
2023-09-17T16:23:46.752Z,51.89
2023-09-17T16:26:12.978Z,50.58
2023-09-17T16:28:39.204Z,53.61
2023-09-17T16:31:05.408Z,53.22
2023-09-17T16:33:31.637Z,52.45
2023-09-17T16:35:57.846Z,52.32
2023-09-17T16:38:24.012Z,54.44
2023-09-17T16:40:50.180Z,53.03
2023-09-17T16:43:16.443Z,53.92
2023-09-17T16:45:42.703Z,52.45
2023-09-17T16:48:08.945Z,53.46
2023-09-17T16:50:35.171Z,52.65
2023-09-17T16:53:01.372Z,51.94
2023-09-17T16:55:27.566Z,53.64
2023-09-17T16:57:53.732Z,54.50
2023-09-17T17:00:19.910Z,55.57
2023-09-17T17:02:46.300Z,54.23
2023-09-17T17:05:12.605Z,54.87
2023-09-17T17:07:38.809Z,55.63
2023-09-17T17:10:04.978Z,56.59
2023-09-17T17:12:31.154Z,56.21
2023-09-17T17:14:57.308Z,56.41
2023-09-17T17:17:23.586Z,58.67
2023-09-17T17:19:49.863Z,58.96
2023-09-17T17:22:16.060Z,58.00
2023-09-17T17:24:42.236Z,56.99
2023-09-17T17:27:08.427Z,58.25
2023-09-17T17:29:34.603Z,57.99
2023-09-17T17:32:00.789Z,58.85
2023-09-17T17:34:26.972Z,59.54
2023-09-17T17:36:53.130Z,58.89
2023-09-17T17:39:19.301Z,58.69
2023-09-17T17:41:45.492Z,57.21
2023-09-17T17:44:13.414Z,58.11
2023-09-17T17:46:39.607Z,58.87
2023-09-17T17:49:05.784Z,60.10
2023-09-17T17:51:31.984Z,59.70
2023-09-17T17:53:58.155Z,59.38
2023-09-17T17:56:24.339Z,60.14
2023-09-17T17:58:50.601Z,61.01
2023-09-17T18:01:16.937Z,61.30
2023-09-17T18:03:43.185Z,60.10
2023-09-17T18:06:09.447Z,60.50
2023-09-17T18:08:35.625Z,60.85
2023-09-17T18:11:01.861Z,60.08
2023-09-17T18:13:28.072Z,61.52
2023-09-17T18:15:54.244Z,62.07
2023-09-17T18:18:20.438Z,62.10
2023-09-17T18:20:46.658Z,62.14
2023-09-17T18:23:12.841Z,60.59
2023-09-17T18:25:39.052Z,60.66
2023-09-17T18:28:05.230Z,61.15
2023-09-17T18:30:31.413Z,60.54
2023-09-17T18:32:57.617Z,60.80
2023-09-17T18:35:23.902Z,60.14
2023-09-17T18:37:50.097Z,59.90
2023-09-17T18:40:16.270Z,60.01
2023-09-17T18:42:42.427Z,59.63
2023-09-17T18:45:10.996Z,59.55
2023-09-17T18:47:37.634Z,61.18
2023-09-17T18:50:03.866Z,60.77
2023-09-17T18:52:30.048Z,61.27
2023-09-17T18:54:56.215Z,61.14
2023-09-17T18:57:22.403Z,60.95
2023-09-17T18:59:48.571Z,61.82
2023-09-17T19:02:14.789Z,60.44
2023-09-17T19:04:41.046Z,61.08
2023-09-17T19:07:07.209Z,61.51
2023-09-17T19:09:33.372Z,60.34
2023-09-17T19:11:59.622Z,62.28
2023-09-17T19:14:25.858Z,61.28
2023-09-17T19:16:52.255Z,61.10
2023-09-17T19:19:18.439Z,62.09
2023-09-17T19:21:44.618Z,62.00
2023-09-17T19:24:10.892Z,60.99
2023-09-17T19:26:37.037Z,60.78
2023-09-17T19:29:03.229Z,62.01
2023-09-17T19:31:29.408Z,61.69
2023-09-17T19:33:55.604Z,61.33
2023-09-17T19:36:21.759Z,61.85
2023-09-17T19:38:47.933Z,59.54
2023-09-17T19:41:14.133Z,60.87
2023-09-17T19:43:40.284Z,61.64
2023-09-17T19:46:06.596Z,64.02
2023-09-17T19:48:32.802Z,64.17
2023-09-17T19:50:58.975Z,63.15
2023-09-17T19:53:25.195Z,64.40
2023-09-17T19:55:51.401Z,63.06
2023-09-17T19:58:17.649Z,62.61
2023-09-17T20:00:43.825Z,61.80
2023-09-17T20:03:10.412Z,62.01
2023-09-17T20:05:36.783Z,63.64
2023-09-17T20:08:02.998Z,62.66
2023-09-17T20:10:29.177Z,63.29
2023-09-17T20:12:55.368Z,63.82
2023-09-17T20:15:21.549Z,63.36
2023-09-17T20:17:47.781Z,62.17
2023-09-17T20:20:13.993Z,63.43
2023-09-17T20:22:40.247Z,62.39
2023-09-17T20:25:06.413Z,63.82
2023-09-17T20:27:32.553Z,63.27
2023-09-17T20:29:58.727Z,63.73
2023-09-17T20:32:25.015Z,63.37
2023-09-17T20:34:51.292Z,63.32
2023-09-17T20:37:17.442Z,63.06
2023-09-17T20:39:43.601Z,62.46
2023-09-17T20:42:09.785Z,62.64
2023-09-17T20:44:35.979Z,62.35
2023-09-17T20:47:02.163Z,61.93
2023-09-17T20:49:28.349Z,63.76
2023-09-17T20:51:54.503Z,63.41
2023-09-17T20:54:20.675Z,64.41
2023-09-17T20:56:46.838Z,63.63
2023-09-17T20:59:13.009Z,63.28
2023-09-17T21:01:39.231Z,62.85
2023-09-17T21:04:05.535Z,62.08
2023-09-17T21:06:31.717Z,63.51
2023-09-17T21:08:57.889Z,62.69
2023-09-17T21:11:24.117Z,62.98
2023-09-17T21:13:50.329Z,63.07
2023-09-17T21:16:17.474Z,62.42
2023-09-17T21:18:43.725Z,63.74
2023-09-17T21:21:09.950Z,62.91
2023-09-17T21:23:36.114Z,63.24
2023-09-17T21:26:02.333Z,63.56
2023-09-17T21:28:28.501Z,64.01
2023-09-17T21:30:54.676Z,64.83
2023-09-17T21:33:20.913Z,64.32
2023-09-17T21:35:47.080Z,64.09
2023-09-17T21:38:13.274Z,64.31
2023-09-17T21:40:39.488Z,63.30
2023-09-17T21:43:05.670Z,64.46
2023-09-17T21:45:31.823Z,64.40
2023-09-17T21:47:58.056Z,63.71
2023-09-17T21:50:24.413Z,63.36
2023-09-17T21:52:50.658Z,63.16
2023-09-17T21:55:16.864Z,64.10
2023-09-17T21:57:43.066Z,63.31
2023-09-17T22:00:09.246Z,64.20
2023-09-17T22:02:35.510Z,64.49
2023-09-17T22:05:01.922Z,63.88
2023-09-17T22:07:28.127Z,64.46
2023-09-17T22:09:54.291Z,65.24
2023-09-17T22:12:20.436Z,65.35
2023-09-17T22:14:46.598Z,66.08
2023-09-17T22:17:12.787Z,64.60
2023-09-17T22:19:38.964Z,65.74
2023-09-17T22:22:05.123Z,65.20
2023-09-17T22:24:31.277Z,65.61
2023-09-17T22:26:57.461Z,65.04
2023-09-17T22:29:23.635Z,65.48
2023-09-17T22:31:49.836Z,65.46
2023-09-17T22:34:16.034Z,66.13
2023-09-17T22:36:42.224Z,65.53
2023-09-17T22:39:08.381Z,65.85
2023-09-17T22:41:34.557Z,66.53
2023-09-17T22:44:11.712Z,66.63
2023-09-17T22:46:42.736Z,65.33
2023-09-17T22:49:09.000Z,64.38
2023-09-17T22:51:35.148Z,65.09
2023-09-17T22:54:01.311Z,64.46
2023-09-17T22:56:27.649Z,65.23
2023-09-17T22:58:54.121Z,65.47
2023-09-17T23:01:20.509Z,66.14
2023-09-17T23:03:46.695Z,65.51
2023-09-17T23:06:13.896Z,65.31
2023-09-17T23:08:40.046Z,65.52
2023-09-17T23:11:06.292Z,64.76
2023-09-17T23:13:32.713Z,64.56
2023-09-17T23:15:58.909Z,64.64
2023-09-17T23:18:25.075Z,64.81
2023-09-17T23:20:51.270Z,64.64
2023-09-17T23:23:17.500Z,66.18
2023-09-17T23:25:43.688Z,67.00
2023-09-17T23:28:09.833Z,65.79
2023-09-17T23:30:36.005Z,66.00
2023-09-17T23:33:02.245Z,67.44
2023-09-17T23:35:28.514Z,66.88
2023-09-17T23:37:54.739Z,65.52
2023-09-17T23:40:20.920Z,65.27
2023-09-17T23:42:47.215Z,66.01
2023-09-17T23:45:13.370Z,65.91
2023-09-17T23:47:39.585Z,64.92
2023-09-17T23:50:05.887Z,67.37
2023-09-17T23:52:32.061Z,66.16
2023-09-17T23:54:58.230Z,65.47
2023-09-17T23:57:24.377Z,65.95
2023-09-17T23:59:50.544Z,65.08
